sensor_id;sensor_type;location;lat;lon;timestamp;P1;durP1;ratioP1;P2;durP2;ratioP2
56051;SDS011;41919;42.648;23.384;2022-09-27T00:00:59;13.10;;;6.00;;
56051;SDS011;41919;42.648;23.384;2022-09-27T00:03:26;8.55;;;5.68;;
56051;SDS011;41919;42.648;23.384;2022-09-27T00:08:33;8.55;;;6.20;;
56051;SDS011;41919;42.648;23.384;2022-09-27T00:11:00;9.48;;;5.65;;
56051;SDS011;41919;42.648;23.384;2022-09-27T00:13:27;8.82;;;6.32;;
56051;SDS011;41919;42.648;23.384;2022-09-27T00:16:00;8.48;;;5.47;;
56051;SDS011;41919;42.648;23.384;2022-09-27T00:18:29;6.18;;;5.30;;
56051;SDS011;41919;42.648;23.384;2022-09-27T00:20:55;9.70;;;5.45;;
56051;SDS011;41919;42.648;23.384;2022-09-27T00:23:20;6.85;;;5.53;;
56051;SDS011;41919;42.648;23.384;2022-09-27T00:25:55;7.80;;;5.63;;
56051;SDS011;41919;42.648;23.384;2022-09-27T00:28:22;8.73;;;5.85;;
56051;SDS011;41919;42.648;23.384;2022-09-27T00:30:47;7.07;;;5.55;;
56051;SDS011;41919;42.648;23.384;2022-09-27T00:33:13;10.10;;;6.53;;
56051;SDS011;41919;42.648;23.384;2022-09-27T00:35:39;8.68;;;6.18;;
56051;SDS011;41919;42.648;23.384;2022-09-27T00:38:04;8.23;;;6.25;;
56051;SDS011;41919;42.648;23.384;2022-09-27T00:40:31;8.25;;;5.63;;
56051;SDS011;41919;42.648;23.384;2022-09-27T00:42:56;8.70;;;5.55;;
56051;SDS011;41919;42.648;23.384;2022-09-27T00:45:22;9.57;;;5.80;;
56051;SDS011;41919;42.648;23.384;2022-09-27T00:47:58;8.38;;;5.57;;
56051;SDS011;41919;42.648;23.384;2022-09-27T00:50:29;7.85;;;5.35;;
56051;SDS011;41919;42.648;23.384;2022-09-27T00:53:03;6.72;;;5.30;;
56051;SDS011;41919;42.648;23.384;2022-09-27T00:55:48;6.50;;;5.78;;
56051;SDS011;41919;42.648;23.384;2022-09-27T00:58:18;9.27;;;5.82;;
56051;SDS011;41919;42.648;23.384;2022-09-27T01:00:47;8.30;;;6.30;;
56051;SDS011;41919;42.648;23.384;2022-09-27T01:03:30;7.88;;;5.20;;
56051;SDS011;41919;42.648;23.384;2022-09-27T01:06:00;10.27;;;5.78;;
56051;SDS011;41919;42.648;23.384;2022-09-27T01:08:27;10.38;;;6.18;;
56051;SDS011;41919;42.648;23.384;2022-09-27T01:10:55;8.25;;;5.80;;
56051;SDS011;41919;42.648;23.384;2022-09-27T01:22:14;6.85;;;5.40;;
56051;SDS011;41919;42.648;23.384;2022-09-27T01:27:55;8.45;;;5.38;;
56051;SDS011;41919;42.648;23.384;2022-09-27T01:30:49;7.30;;;5.25;;
56051;SDS011;41919;42.648;23.384;2022-09-27T01:33:29;11.32;;;5.65;;
56051;SDS011;41919;42.648;23.384;2022-09-27T01:36:26;6.93;;;5.43;;
56051;SDS011;41919;42.648;23.384;2022-09-27T01:47:00;13.05;;;6.22;;
56051;SDS011;41919;42.648;23.384;2022-09-27T01:49:31;8.70;;;6.05;;
56051;SDS011;41919;42.648;23.384;2022-09-27T01:52:04;8.10;;;6.03;;
56051;SDS011;41919;42.648;23.384;2022-09-27T01:54:36;10.40;;;5.95;;
56051;SDS011;41919;42.648;23.384;2022-09-27T01:57:05;9.07;;;6.07;;
56051;SDS011;41919;42.648;23.384;2022-09-27T01:59:45;11.27;;;5.95;;
56051;SDS011;41919;42.648;23.384;2022-09-27T02:02:15;8.52;;;5.63;;
56051;SDS011;41919;42.648;23.384;2022-09-27T02:04:43;9.52;;;6.20;;
56051;SDS011;41919;42.648;23.384;2022-09-27T02:07:26;8.05;;;5.72;;
56051;SDS011;41919;42.648;23.384;2022-09-27T02:10:01;7.90;;;6.15;;
56051;SDS011;41919;42.648;23.384;2022-09-27T02:12:30;8.73;;;4.97;;
56051;SDS011;41919;42.648;23.384;2022-09-27T02:15:11;8.43;;;5.28;;
56051;SDS011;41919;42.648;23.384;2022-09-27T02:30:50;8.90;;;6.40;;
56051;SDS011;41919;42.648;23.384;2022-09-27T02:33:17;8.48;;;6.35;;
56051;SDS011;41919;42.648;23.384;2022-09-27T02:35:44;10.60;;;6.50;;
56051;SDS011;41919;42.648;23.384;2022-09-27T02:38:10;8.27;;;6.57;;
56051;SDS011;41919;42.648;23.384;2022-09-27T02:40:41;6.97;;;5.70;;
56051;SDS011;41919;42.648;23.384;2022-09-27T02:43:08;10.43;;;6.25;;
56051;SDS011;41919;42.648;23.384;2022-09-27T02:51:12;8.15;;;5.88;;
56051;SDS011;41919;42.648;23.384;2022-09-27T02:56:47;10.70;;;6.38;;
56051;SDS011;41919;42.648;23.384;2022-09-27T03:07:11;8.68;;;6.43;;
56051;SDS011;41919;42.648;23.384;2022-09-27T03:09:42;9.48;;;7.03;;
56051;SDS011;41919;42.648;23.384;2022-09-27T03:12:10;9.10;;;6.72;;
56051;SDS011;41919;42.648;23.384;2022-09-27T03:14:36;10.82;;;7.38;;
56051;SDS011;41919;42.648;23.384;2022-09-27T03:17:01;8.90;;;7.20;;
56051;SDS011;41919;42.648;23.384;2022-09-27T03:19:27;10.82;;;7.38;;
56051;SDS011;41919;42.648;23.384;2022-09-27T03:21:52;10.23;;;7.40;;
56051;SDS011;41919;42.648;23.384;2022-09-27T03:24:18;8.93;;;7.22;;
56051;SDS011;41919;42.648;23.384;2022-09-27T03:26:45;11.18;;;7.53;;
56051;SDS011;41919;42.648;23.384;2022-09-27T03:29:11;9.35;;;7.28;;
56051;SDS011;41919;42.648;23.384;2022-09-27T03:31:36;11.13;;;7.25;;
56051;SDS011;41919;42.648;23.384;2022-09-27T03:34:01;12.25;;;7.63;;
56051;SDS011;41919;42.648;23.384;2022-09-27T03:36:27;12.50;;;7.97;;
56051;SDS011;41919;42.648;23.384;2022-09-27T03:38:52;12.23;;;7.55;;
56051;SDS011;41919;42.648;23.384;2022-09-27T03:41:18;10.32;;;7.93;;
56051;SDS011;41919;42.648;23.384;2022-09-27T03:43:44;10.10;;;7.97;;
56051;SDS011;41919;42.648;23.384;2022-09-27T03:46:09;13.38;;;7.72;;
56051;SDS011;41919;42.648;23.384;2022-09-27T03:48:35;10.25;;;7.57;;
56051;SDS011;41919;42.648;23.384;2022-09-27T03:51:01;10.48;;;7.65;;
56051;SDS011;41919;42.648;23.384;2022-09-27T03:53:28;10.48;;;8.13;;
56051;SDS011;41919;42.648;23.384;2022-09-27T03:55:54;9.30;;;7.85;;
56051;SDS011;41919;42.648;23.384;2022-09-27T03:58:20;10.80;;;7.85;;
56051;SDS011;41919;42.648;23.384;2022-09-27T04:00:45;11.10;;;8.48;;
56051;SDS011;41919;42.648;23.384;2022-09-27T04:03:12;11.40;;;8.32;;
56051;SDS011;41919;42.648;23.384;2022-09-27T04:05:37;10.88;;;8.45;;
56051;SDS011;41919;42.648;23.384;2022-09-27T04:08:03;13.10;;;9.23;;
56051;SDS011;41919;42.648;23.384;2022-09-27T04:10:30;14.50;;;8.90;;
56051;SDS011;41919;42.648;23.384;2022-09-27T04:12:55;13.30;;;8.70;;
56051;SDS011;41919;42.648;23.384;2022-09-27T04:15:21;12.80;;;8.35;;
56051;SDS011;41919;42.648;23.384;2022-09-27T04:17:47;12.77;;;9.07;;
56051;SDS011;41919;42.648;23.384;2022-09-27T04:20:12;11.32;;;8.60;;
56051;SDS011;41919;42.648;23.384;2022-09-27T04:22:40;13.38;;;9.00;;
56051;SDS011;41919;42.648;23.384;2022-09-27T04:25:08;14.80;;;9.63;;
56051;SDS011;41919;42.648;23.384;2022-09-27T04:27:34;12.30;;;9.85;;
56051;SDS011;41919;42.648;23.384;2022-09-27T04:30:00;16.77;;;10.70;;
56051;SDS011;41919;42.648;23.384;2022-09-27T04:32:25;13.90;;;9.95;;
56051;SDS011;41919;42.648;23.384;2022-09-27T04:34:51;13.25;;;10.35;;
56051;SDS011;41919;42.648;23.384;2022-09-27T04:37:34;13.85;;;9.77;;
56051;SDS011;41919;42.648;23.384;2022-09-27T04:40:01;15.20;;;10.07;;
56051;SDS011;41919;42.648;23.384;2022-09-27T04:42:27;15.27;;;10.27;;
56051;SDS011;41919;42.648;23.384;2022-09-27T04:44:54;17.58;;;11.85;;
56051;SDS011;41919;42.648;23.384;2022-09-27T04:47:19;19.60;;;10.88;;
56051;SDS011;41919;42.648;23.384;2022-09-27T04:49:45;15.68;;;10.65;;
56051;SDS011;41919;42.648;23.384;2022-09-27T04:52:11;16.25;;;11.05;;
56051;SDS011;41919;42.648;23.384;2022-09-27T04:54:39;15.55;;;10.98;;
56051;SDS011;41919;42.648;23.384;2022-09-27T04:57:05;13.93;;;9.73;;
56051;SDS011;41919;42.648;23.384;2022-09-27T04:59:30;14.65;;;9.82;;
56051;SDS011;41919;42.648;23.384;2022-09-27T05:01:55;15.05;;;11.55;;
56051;SDS011;41919;42.648;23.384;2022-09-27T05:04:24;17.88;;;9.88;;
56051;SDS011;41919;42.648;23.384;2022-09-27T05:06:49;12.88;;;8.15;;
56051;SDS011;41919;42.648;23.384;2022-09-27T05:09:15;13.52;;;9.32;;
56051;SDS011;41919;42.648;23.384;2022-09-27T05:11:40;13.60;;;9.25;;
56051;SDS011;41919;42.648;23.384;2022-09-27T05:14:06;13.23;;;9.02;;
56051;SDS011;41919;42.648;23.384;2022-09-27T05:16:32;15.55;;;10.30;;
56051;SDS011;41919;42.648;23.384;2022-09-27T05:18:57;14.63;;;9.80;;
56051;SDS011;41919;42.648;23.384;2022-09-27T05:21:23;14.05;;;9.85;;
56051;SDS011;41919;42.648;23.384;2022-09-27T05:23:48;12.20;;;9.23;;
56051;SDS011;41919;42.648;23.384;2022-09-27T05:26:13;14.80;;;11.07;;
56051;SDS011;41919;42.648;23.384;2022-09-27T05:28:39;16.10;;;10.93;;
56051;SDS011;41919;42.648;23.384;2022-09-27T05:31:07;17.50;;;12.10;;
56051;SDS011;41919;42.648;23.384;2022-09-27T05:33:32;15.90;;;11.13;;
56051;SDS011;41919;42.648;23.384;2022-09-27T05:35:58;14.65;;;11.77;;
56051;SDS011;41919;42.648;23.384;2022-09-27T05:38:24;19.33;;;12.43;;
56051;SDS011;41919;42.648;23.384;2022-09-27T05:40:49;18.83;;;12.48;;
56051;SDS011;41919;42.648;23.384;2022-09-27T05:43:16;17.55;;;11.88;;
56051;SDS011;41919;42.648;23.384;2022-09-27T05:45:42;17.65;;;12.45;;
56051;SDS011;41919;42.648;23.384;2022-09-27T05:48:08;17.83;;;12.85;;
56051;SDS011;41919;42.648;23.384;2022-09-27T05:50:36;17.65;;;12.45;;
56051;SDS011;41919;42.648;23.384;2022-09-27T05:53:02;22.73;;;13.55;;
56051;SDS011;41919;42.648;23.384;2022-09-27T05:55:28;19.85;;;11.98;;
56051;SDS011;41919;42.648;23.384;2022-09-27T06:00:20;18.45;;;13.02;;
56051;SDS011;41919;42.648;23.384;2022-09-27T06:02:51;17.70;;;12.52;;
56051;SDS011;41919;42.648;23.384;2022-09-27T06:05:19;14.98;;;11.57;;
56051;SDS011;41919;42.648;23.384;2022-09-27T06:07:44;19.83;;;13.18;;
56051;SDS011;41919;42.648;23.384;2022-09-27T06:10:10;20.23;;;12.80;;
56051;SDS011;41919;42.648;23.384;2022-09-27T06:12:35;18.58;;;12.90;;
56051;SDS011;41919;42.648;23.384;2022-09-27T06:15:01;20.17;;;13.40;;
56051;SDS011;41919;42.648;23.384;2022-09-27T06:17:27;19.17;;;13.00;;
56051;SDS011;41919;42.648;23.384;2022-09-27T06:19:52;22.20;;;13.77;;
56051;SDS011;41919;42.648;23.384;2022-09-27T06:22:18;20.67;;;13.20;;
56051;SDS011;41919;42.648;23.384;2022-09-27T06:24:43;20.90;;;12.95;;
56051;SDS011;41919;42.648;23.384;2022-09-27T06:27:10;18.10;;;12.88;;
56051;SDS011;41919;42.648;23.384;2022-09-27T06:29:35;21.77;;;13.32;;
56051;SDS011;41919;42.648;23.384;2022-09-27T06:32:01;21.15;;;14.30;;
56051;SDS011;41919;42.648;23.384;2022-09-27T06:34:26;22.13;;;12.00;;
56051;SDS011;41919;42.648;23.384;2022-09-27T06:36:52;20.60;;;13.13;;
56051;SDS011;41919;42.648;23.384;2022-09-27T06:39:17;20.85;;;14.52;;
56051;SDS011;41919;42.648;23.384;2022-09-27T06:41:43;17.40;;;12.95;;
56051;SDS011;41919;42.648;23.384;2022-09-27T06:44:09;16.38;;;11.73;;
56051;SDS011;41919;42.648;23.384;2022-09-27T06:46:35;19.58;;;13.30;;
56051;SDS011;41919;42.648;23.384;2022-09-27T06:49:02;19.13;;;12.63;;
56051;SDS011;41919;42.648;23.384;2022-09-27T06:51:27;18.02;;;11.52;;
56051;SDS011;41919;42.648;23.384;2022-09-27T06:53:53;16.98;;;11.38;;
56051;SDS011;41919;42.648;23.384;2022-09-27T06:56:18;20.80;;;13.10;;
56051;SDS011;41919;42.648;23.384;2022-09-27T06:58:43;15.57;;;10.90;;
56051;SDS011;41919;42.648;23.384;2022-09-27T07:01:28;14.52;;;10.18;;
56051;SDS011;41919;42.648;23.384;2022-09-27T07:03:53;13.35;;;9.65;;
56051;SDS011;41919;42.648;23.384;2022-09-27T07:06:20;13.48;;;11.10;;
56051;SDS011;41919;42.648;23.384;2022-09-27T07:08:49;13.60;;;10.65;;
56051;SDS011;41919;42.648;23.384;2022-09-27T07:11:16;14.15;;;10.98;;
56051;SDS011;41919;42.648;23.384;2022-09-27T07:13:42;19.35;;;11.43;;
56051;SDS011;41919;42.648;23.384;2022-09-27T07:16:11;16.42;;;10.70;;
56051;SDS011;41919;42.648;23.384;2022-09-27T07:18:38;16.63;;;12.10;;
56051;SDS011;41919;42.648;23.384;2022-09-27T07:21:04;17.23;;;12.30;;
56051;SDS011;41919;42.648;23.384;2022-09-27T07:23:30;14.82;;;10.52;;
56051;SDS011;41919;42.648;23.384;2022-09-27T07:25:55;14.63;;;10.52;;
56051;SDS011;41919;42.648;23.384;2022-09-27T07:28:28;15.63;;;11.18;;
56051;SDS011;41919;42.648;23.384;2022-09-27T07:30:54;15.73;;;10.77;;
56051;SDS011;41919;42.648;23.384;2022-09-27T07:33:20;12.98;;;9.98;;
56051;SDS011;41919;42.648;23.384;2022-09-27T07:35:46;14.05;;;9.93;;
56051;SDS011;41919;42.648;23.384;2022-09-27T07:38:12;12.18;;;9.07;;
56051;SDS011;41919;42.648;23.384;2022-09-27T07:40:38;18.95;;;11.80;;
56051;SDS011;41919;42.648;23.384;2022-09-27T07:43:04;12.70;;;9.20;;
56051;SDS011;41919;42.648;23.384;2022-09-27T07:45:32;13.73;;;9.80;;
56051;SDS011;41919;42.648;23.384;2022-09-27T07:47:57;17.92;;;9.07;;
56051;SDS011;41919;42.648;23.384;2022-09-27T07:50:23;14.43;;;9.93;;
56051;SDS011;41919;42.648;23.384;2022-09-27T07:52:49;16.42;;;10.38;;
56051;SDS011;41919;42.648;23.384;2022-09-27T07:55:18;18.00;;;11.63;;
56051;SDS011;41919;42.648;23.384;2022-09-27T07:57:44;24.27;;;17.67;;
56051;SDS011;41919;42.648;23.384;2022-09-27T08:00:14;34.78;;;24.77;;
56051;SDS011;41919;42.648;23.384;2022-09-27T08:02:41;39.67;;;27.33;;
56051;SDS011;41919;42.648;23.384;2022-09-27T08:05:08;36.65;;;24.92;;
56051;SDS011;41919;42.648;23.384;2022-09-27T08:07:34;35.03;;;24.23;;
56051;SDS011;41919;42.648;23.384;2022-09-27T08:10:00;36.42;;;24.38;;
56051;SDS011;41919;42.648;23.384;2022-09-27T08:12:25;33.40;;;21.98;;
56051;SDS011;41919;42.648;23.384;2022-09-27T08:14:51;38.75;;;23.40;;
56051;SDS011;41919;42.648;23.384;2022-09-27T08:17:17;32.65;;;21.52;;
56051;SDS011;41919;42.648;23.384;2022-09-27T08:19:43;36.97;;;22.27;;
56051;SDS011;41919;42.648;23.384;2022-09-27T08:22:10;29.67;;;20.52;;
56051;SDS011;41919;42.648;23.384;2022-09-27T08:24:38;25.95;;;17.48;;
56051;SDS011;41919;42.648;23.384;2022-09-27T08:27:03;25.10;;;18.05;;
56051;SDS011;41919;42.648;23.384;2022-09-27T08:29:32;24.50;;;15.43;;
56051;SDS011;41919;42.648;23.384;2022-09-27T08:31:58;20.60;;;13.98;;
56051;SDS011;41919;42.648;23.384;2022-09-27T08:34:23;21.48;;;15.13;;
56051;SDS011;41919;42.648;23.384;2022-09-27T08:36:49;23.83;;;15.18;;
56051;SDS011;41919;42.648;23.384;2022-09-27T08:39:14;23.88;;;14.98;;
56051;SDS011;41919;42.648;23.384;2022-09-27T08:47:56;16.17;;;11.85;;
56051;SDS011;41919;42.648;23.384;2022-09-27T08:57:53;16.25;;;12.35;;
56051;SDS011;41919;42.648;23.384;2022-09-27T09:00:21;16.17;;;12.43;;
56051;SDS011;41919;42.648;23.384;2022-09-27T09:02:47;19.95;;;13.07;;
56051;SDS011;41919;42.648;23.384;2022-09-27T09:05:15;23.27;;;13.93;;
56051;SDS011;41919;42.648;23.384;2022-09-27T09:08:01;17.13;;;13.43;;
56051;SDS011;41919;42.648;23.384;2022-09-27T09:10:54;18.13;;;12.73;;
56051;SDS011;41919;42.648;23.384;2022-09-27T09:21:56;19.27;;;13.10;;
56051;SDS011;41919;42.648;23.384;2022-09-27T09:35:58;18.00;;;13.10;;
56051;SDS011;41919;42.648;23.384;2022-09-27T09:38:37;20.67;;;13.85;;
56051;SDS011;41919;42.648;23.384;2022-09-27T09:43:42;17.73;;;11.50;;
56051;SDS011;41919;42.648;23.384;2022-09-27T09:46:21;14.45;;;10.68;;
56051;SDS011;41919;42.648;23.384;2022-09-27T09:51:27;14.75;;;11.30;;
56051;SDS011;41919;42.648;23.384;2022-09-27T09:54:02;17.40;;;11.48;;
56051;SDS011;41919;42.648;23.384;2022-09-27T09:56:38;18.42;;;12.15;;
56051;SDS011;41919;42.648;23.384;2022-09-27T10:01:48;14.50;;;10.52;;
56051;SDS011;41919;42.648;23.384;2022-09-27T10:04:25;15.70;;;9.93;;
56051;SDS011;41919;42.648;23.384;2022-09-27T10:06:52;18.70;;;11.50;;
56051;SDS011;41919;42.648;23.384;2022-09-27T10:09:21;19.33;;;11.48;;
56051;SDS011;41919;42.648;23.384;2022-09-27T10:11:49;15.57;;;9.70;;
56051;SDS011;41919;42.648;23.384;2022-09-27T10:14:16;14.98;;;9.18;;
56051;SDS011;41919;42.648;23.384;2022-09-27T10:16:47;12.98;;;9.52;;
56051;SDS011;41919;42.648;23.384;2022-09-27T10:19:28;15.32;;;10.15;;
56051;SDS011;41919;42.648;23.384;2022-09-27T10:22:00;14.38;;;10.82;;
56051;SDS011;41919;42.648;23.384;2022-09-27T10:24:27;14.23;;;8.90;;
56051;SDS011;41919;42.648;23.384;2022-09-27T10:26:56;13.93;;;10.65;;
56051;SDS011;41919;42.648;23.384;2022-09-27T10:29:28;10.65;;;8.57;;
56051;SDS011;41919;42.648;23.384;2022-09-27T10:31:56;12.50;;;9.43;;
56051;SDS011;41919;42.648;23.384;2022-09-27T10:34:26;14.85;;;10.02;;
56051;SDS011;41919;42.648;23.384;2022-09-27T10:39:37;14.40;;;10.47;;
56051;SDS011;41919;42.648;23.384;2022-09-27T10:45:48;12.73;;;9.65;;
56051;SDS011;41919;42.648;23.384;2022-09-27T10:47:48;14.35;;;10.75;;
56051;SDS011;41919;42.648;23.384;2022-09-27T10:50:18;16.83;;;11.35;;
56051;SDS011;41919;42.648;23.384;2022-09-27T10:52:49;16.38;;;10.80;;
56051;SDS011;41919;42.648;23.384;2022-09-27T10:55:27;14.57;;;11.02;;
56051;SDS011;41919;42.648;23.384;2022-09-27T10:57:56;14.90;;;10.18;;
56051;SDS011;41919;42.648;23.384;2022-09-27T11:00:27;14.00;;;10.48;;
56051;SDS011;41919;42.648;23.384;2022-09-27T11:02:57;12.73;;;10.10;;
56051;SDS011;41919;42.648;23.384;2022-09-27T11:07:58;15.93;;;10.88;;
56051;SDS011;41919;42.648;23.384;2022-09-27T11:10:34;12.05;;;9.32;;
56051;SDS011;41919;42.648;23.384;2022-09-27T11:13:07;14.40;;;9.75;;
56051;SDS011;41919;42.648;23.384;2022-09-27T11:15:42;13.25;;;9.52;;
56051;SDS011;41919;42.648;23.384;2022-09-27T11:18:45;11.85;;;9.05;;
56051;SDS011;41919;42.648;23.384;2022-09-27T11:21:49;15.90;;;9.60;;
56051;SDS011;41919;42.648;23.384;2022-09-27T11:30:07;14.98;;;10.52;;
56051;SDS011;41919;42.648;23.384;2022-09-27T11:44:25;10.68;;;9.18;;
56051;SDS011;41919;42.648;23.384;2022-09-27T11:46:41;11.23;;;8.27;;
56051;SDS011;41919;42.648;23.384;2022-09-27T11:52:29;10.18;;;6.65;;
56051;SDS011;41919;42.648;23.384;2022-09-27T11:57:58;7.25;;;6.55;;
56051;SDS011;41919;42.648;23.384;2022-09-27T12:06:15;9.70;;;6.30;;
56051;SDS011;41919;42.648;23.384;2022-09-27T12:11:25;8.50;;;5.70;;
56051;SDS011;41919;42.648;23.384;2022-09-27T12:16:58;5.95;;;5.30;;
56051;SDS011;41919;42.648;23.384;2022-09-27T12:19:28;7.63;;;5.95;;
56051;SDS011;41919;42.648;23.384;2022-09-27T12:21:59;6.13;;;5.30;;
56051;SDS011;41919;42.648;23.384;2022-09-27T12:24:28;9.02;;;5.72;;
56051;SDS011;41919;42.648;23.384;2022-09-27T12:26:56;5.90;;;5.30;;
56051;SDS011;41919;42.648;23.384;2022-09-27T12:29:28;9.93;;;5.55;;
56051;SDS011;41919;42.648;23.384;2022-09-27T12:32:00;5.85;;;4.68;;
56051;SDS011;41919;42.648;23.384;2022-09-27T12:34:43;5.18;;;4.70;;
56051;SDS011;41919;42.648;23.384;2022-09-27T12:37:23;4.90;;;4.40;;
56051;SDS011;41919;42.648;23.384;2022-09-27T12:40:24;5.93;;;4.35;;
56051;SDS011;41919;42.648;23.384;2022-09-27T12:43:02;5.32;;;4.60;;
56051;SDS011;41919;42.648;23.384;2022-09-27T12:50:35;5.82;;;4.13;;
56051;SDS011;41919;42.648;23.384;2022-09-27T12:58:37;4.82;;;3.80;;
56051;SDS011;41919;42.648;23.384;2022-09-27T13:04:20;5.97;;;4.28;;
56051;SDS011;41919;42.648;23.384;2022-09-27T13:12:48;3.70;;;3.40;;
56051;SDS011;41919;42.648;23.384;2022-09-27T13:17:57;4.95;;;3.50;;
56051;SDS011;41919;42.648;23.384;2022-09-27T13:25:53;3.80;;;3.50;;
56051;SDS011;41919;42.648;23.384;2022-09-27T13:30:57;4.10;;;3.23;;
56051;SDS011;41919;42.648;23.384;2022-09-27T13:44:21;4.65;;;2.25;;
56051;SDS011;41919;42.648;23.384;2022-09-27T13:47:13;3.55;;;2.35;;
56051;SDS011;41919;42.648;23.384;2022-09-27T13:49:40;2.50;;;2.30;;
56051;SDS011;41919;42.648;23.384;2022-09-27T13:55:03;4.72;;;2.45;;
56051;SDS011;41919;42.648;23.384;2022-09-27T13:58:00;2.35;;;2.22;;
56051;SDS011;41919;42.648;23.384;2022-09-27T14:00:43;3.28;;;2.90;;
56051;SDS011;41919;42.648;23.384;2022-09-27T14:06:18;3.45;;;3.20;;
56051;SDS011;41919;42.648;23.384;2022-09-27T14:08:53;4.27;;;3.13;;
56051;SDS011;41919;42.648;23.384;2022-09-27T14:11:24;3.95;;;2.55;;
56051;SDS011;41919;42.648;23.384;2022-09-27T14:13:51;3.17;;;2.88;;
56051;SDS011;41919;42.648;23.384;2022-09-27T14:16:17;3.47;;;3.17;;
56051;SDS011;41919;42.648;23.384;2022-09-27T14:18:46;5.18;;;3.67;;
56051;SDS011;41919;42.648;23.384;2022-09-27T14:21:24;2.28;;;2.08;;
56051;SDS011;41919;42.648;23.384;2022-09-27T14:24:13;4.25;;;3.53;;
56051;SDS011;41919;42.648;23.384;2022-09-27T14:29:54;3.88;;;2.65;;
56051;SDS011;41919;42.648;23.384;2022-09-27T14:32:22;2.88;;;2.67;;
56051;SDS011;41919;42.648;23.384;2022-09-27T14:35:05;5.10;;;3.33;;
56051;SDS011;41919;42.648;23.384;2022-09-27T14:38:28;6.00;;;2.70;;
56051;SDS011;41919;42.648;23.384;2022-09-27T14:40:58;2.67;;;2.47;;
56051;SDS011;41919;42.648;23.384;2022-09-27T14:43:24;2.22;;;2.03;;
56051;SDS011;41919;42.648;23.384;2022-09-27T14:45:52;6.65;;;2.20;;
56051;SDS011;41919;42.648;23.384;2022-09-27T14:48:29;3.17;;;2.40;;
56051;SDS011;41919;42.648;23.384;2022-09-27T14:51:38;3.75;;;2.42;;
56051;SDS011;41919;42.648;23.384;2022-09-27T14:53:50;4.13;;;2.17;;
56051;SDS011;41919;42.648;23.384;2022-09-27T14:56:22;3.17;;;2.17;;
56051;SDS011;41919;42.648;23.384;2022-09-27T14:58:55;2.33;;;2.13;;
56051;SDS011;41919;42.648;23.384;2022-09-27T15:01:26;2.63;;;2.05;;
56051;SDS011;41919;42.648;23.384;2022-09-27T15:03:53;3.25;;;2.40;;
56051;SDS011;41919;42.648;23.384;2022-09-27T15:06:20;4.60;;;2.50;;
56051;SDS011;41919;42.648;23.384;2022-09-27T15:08:46;3.65;;;2.00;;
56051;SDS011;41919;42.648;23.384;2022-09-27T15:11:13;3.15;;;1.98;;
56051;SDS011;41919;42.648;23.384;2022-09-27T15:13:42;6.13;;;5.22;;
56051;SDS011;41919;42.648;23.384;2022-09-27T15:16:15;6.75;;;2.78;;
56051;SDS011;41919;42.648;23.384;2022-09-27T15:18:45;3.95;;;3.00;;
56051;SDS011;41919;42.648;23.384;2022-09-27T15:21:26;3.97;;;2.22;;
56051;SDS011;41919;42.648;23.384;2022-09-27T15:23:54;7.38;;;1.50;;
56051;SDS011;41919;42.648;23.384;2022-09-27T15:26:24;2.55;;;1.40;;
56051;SDS011;41919;42.648;23.384;2022-09-27T15:28:58;2.67;;;1.42;;
56051;SDS011;41919;42.648;23.384;2022-09-27T15:31:28;5.97;;;2.05;;
56051;SDS011;41919;42.648;23.384;2022-09-27T15:33:55;4.35;;;1.55;;
56051;SDS011;41919;42.648;23.384;2022-09-27T15:39:14;5.00;;;1.48;;
56051;SDS011;41919;42.648;23.384;2022-09-27T15:42:00;2.33;;;1.70;;
56051;SDS011;41919;42.648;23.384;2022-09-27T15:44:52;2.85;;;1.42;;
56051;SDS011;41919;42.648;23.384;2022-09-27T15:49:58;1.92;;;1.35;;
56051;SDS011;41919;42.648;23.384;2022-09-27T15:52:45;2.70;;;1.33;;
56051;SDS011;41919;42.648;23.384;2022-09-27T15:55:15;1.85;;;1.10;;
56051;SDS011;41919;42.648;23.384;2022-09-27T15:57:46;2.33;;;1.50;;
56051;SDS011;41919;42.648;23.384;2022-09-27T16:00:15;4.63;;;1.40;;
56051;SDS011;41919;42.648;23.384;2022-09-27T16:02:42;3.10;;;1.67;;
56051;SDS011;41919;42.648;23.384;2022-09-27T16:05:08;3.10;;;1.65;;
56051;SDS011;41919;42.648;23.384;2022-09-27T16:07:34;3.08;;;1.63;;
56051;SDS011;41919;42.648;23.384;2022-09-27T16:09:59;2.58;;;1.40;;
56051;SDS011;41919;42.648;23.384;2022-09-27T16:12:25;5.55;;;1.90;;
56051;SDS011;41919;42.648;23.384;2022-09-27T16:14:54;8.85;;;4.75;;
56051;SDS011;41919;42.648;23.384;2022-09-27T16:17:19;5.80;;;3.00;;
56051;SDS011;41919;42.648;23.384;2022-09-27T16:19:45;5.03;;;2.63;;
56051;SDS011;41919;42.648;23.384;2022-09-27T16:22:10;6.68;;;2.30;;
56051;SDS011;41919;42.648;23.384;2022-09-27T16:24:35;3.17;;;1.60;;
56051;SDS011;41919;42.648;23.384;2022-09-27T16:27:01;3.95;;;1.30;;
56051;SDS011;41919;42.648;23.384;2022-09-27T16:29:27;4.38;;;1.25;;
56051;SDS011;41919;42.648;23.384;2022-09-27T16:31:53;5.65;;;1.80;;
56051;SDS011;41919;42.648;23.384;2022-09-27T16:34:18;6.30;;;2.63;;
56051;SDS011;41919;42.648;23.384;2022-09-27T16:36:44;5.38;;;2.60;;
56051;SDS011;41919;42.648;23.384;2022-09-27T16:39:10;3.67;;;1.77;;
56051;SDS011;41919;42.648;23.384;2022-09-27T16:41:37;4.57;;;2.00;;
56051;SDS011;41919;42.648;23.384;2022-09-27T16:44:06;2.58;;;1.60;;
56051;SDS011;41919;42.648;23.384;2022-09-27T16:46:32;3.78;;;1.80;;
56051;SDS011;41919;42.648;23.384;2022-09-27T16:48:59;2.17;;;1.63;;
56051;SDS011;41919;42.648;23.384;2022-09-27T16:51:24;2.95;;;1.75;;
56051;SDS011;41919;42.648;23.384;2022-09-27T16:54:08;5.00;;;2.15;;
56051;SDS011;41919;42.648;23.384;2022-09-27T16:56:34;4.07;;;2.25;;
56051;SDS011;41919;42.648;23.384;2022-09-27T16:59:00;5.60;;;2.58;;
56051;SDS011;41919;42.648;23.384;2022-09-27T17:01:31;5.18;;;2.45;;
56051;SDS011;41919;42.648;23.384;2022-09-27T17:03:57;4.07;;;1.95;;
56051;SDS011;41919;42.648;23.384;2022-09-27T17:06:24;3.92;;;2.13;;
56051;SDS011;41919;42.648;23.384;2022-09-27T17:08:52;3.13;;;2.15;;
56051;SDS011;41919;42.648;23.384;2022-09-27T17:11:18;2.05;;;1.85;;
56051;SDS011;41919;42.648;23.384;2022-09-27T17:13:44;2.15;;;1.92;;
56051;SDS011;41919;42.648;23.384;2022-09-27T17:16:11;3.90;;;2.13;;
56051;SDS011;41919;42.648;23.384;2022-09-27T17:18:37;2.80;;;1.92;;
56051;SDS011;41919;42.648;23.384;2022-09-27T17:21:04;3.42;;;2.13;;
56051;SDS011;41919;42.648;23.384;2022-09-27T17:23:31;5.85;;;2.67;;
56051;SDS011;41919;42.648;23.384;2022-09-27T17:26:08;3.92;;;2.58;;
56051;SDS011;41919;42.648;23.384;2022-09-27T17:28:46;5.15;;;2.50;;
56051;SDS011;41919;42.648;23.384;2022-09-27T17:31:14;6.53;;;3.17;;
56051;SDS011;41919;42.648;23.384;2022-09-27T17:33:45;2.80;;;2.25;;
56051;SDS011;41919;42.648;23.384;2022-09-27T17:36:13;3.45;;;2.45;;
56051;SDS011;41919;42.648;23.384;2022-09-27T17:38:44;5.28;;;2.83;;
56051;SDS011;41919;42.648;23.384;2022-09-27T17:41:13;3.13;;;2.25;;
56051;SDS011;41919;42.648;23.384;2022-09-27T17:43:40;6.93;;;2.78;;
56051;SDS011;41919;42.648;23.384;2022-09-27T17:46:14;5.22;;;2.63;;
56051;SDS011;41919;42.648;23.384;2022-09-27T17:48:41;3.75;;;2.97;;
56051;SDS011;41919;42.648;23.384;2022-09-27T17:51:25;12.60;;;6.38;;
56051;SDS011;41919;42.648;23.384;2022-09-27T17:53:51;5.15;;;3.30;;